Time;durP1;ratioP1;P1;durP2;ratioP2;P2;SDS_P1;SDS_P2;PMS_P1;PMS_P2;Temp;Humidity;BMP_temperature;BMP_pressure;BME280_temperature;BME280_humidity;BME280_pressure;Samples;Min_cycle;Max_cycle;Signal;HPM_P1;HPM_P2
2021/01/06 00:09:34;;;;;;;17.83;11.80;;;;;;;-0.02;89.43;98869.34;492520;1145;65119;-66
2021/01/06 00:19:38;;;;;;;17.95;13.30;;;;;;;-0.05;89.34;98874.61;493729;1145;65139;-64
2021/01/06 00:29:42;;;;;;;18.47;12.30;;;;;;;-0.06;89.29;98878.95;493557;1145;65568;-67
2021/01/06 00:39:46;;;;;;;18.60;12.50;;;;;;;-0.06;89.10;98889.27;492788;1145;65113;-66
2021/01/06 00:49:50;;;;;;;16.17;11.57;;;;;;;-0.07;88.68;98897.05;493137;1145;65567;-65
2021/01/06 00:59:54;;;;;;;19.23;13.23;;;;;;;-0.19;87.96;98904.28;493257;1145;65156;-67
2021/01/06 01:09:58;;;;;;;24.43;14.20;;;;;;;-0.28;88.27;98904.56;492859;1144;65137;-66
2021/01/06 01:20:03;;;;;;;20.00;14.60;;;;;;;-0.27;88.37;98928.64;493215;1145;65471;-67
2021/01/06 01:30:12;;;;;;;24.13;15.00;;;;;;;-0.23;88.54;98936.25;493111;1145;65427;-66
2021/01/06 01:40:22;;;;;;;22.95;14.20;;;;;;;-0.23;88.28;98930.22;492586;1145;65140;-65
2021/01/06 01:50:26;;;;;;;21.87;14.83;;;;;;;-0.24;89.08;98931.12;492714;1145;65433;-65
2021/01/06 02:00:33;;;;;;;24.45;14.60;;;;;;;-0.22;89.15;98945.67;493733;1145;65216;-72
2021/01/06 02:10:43;;;;;;;21.93;13.57;;;;;;;-0.24;89.07;98944.84;492896;1145;65130;-71
2021/01/06 02:21:11;;;;;;;21.37;14.47;;;;;;;-0.22;88.32;98944.81;492448;1145;65176;-71
2021/01/06 02:31:16;;;;;;;21.30;13.97;;;;;;;-0.21;88.16;98936.17;492780;1145;65118;-71
2021/01/06 02:41:21;;;;;;;21.67;15.07;;;;;;;-0.20;88.78;98925.82;493955;1146;65201;-71
2021/01/06 02:51:34;;;;;;;22.67;13.87;;;;;;;-0.38;89.33;98911.75;492816;1145;65207;-71
2021/01/06 03:01:41;;;;;;;21.50;14.10;;;;;;;-0.19;88.61;98942.13;492558;1145;65139;-69
2021/01/06 03:11:44;;;;;;;;;;;;;;;-0.22;88.54;98947.39;492616;1145;65204;-72
2021/01/06 03:21:49;;;;;;;20.80;13.50;;;;;;;-0.21;88.75;98928.44;492787;1145;65177;-73
2021/01/06 03:31:57;;;;;;;17.93;11.33;;;;;;;-0.24;88.12;98931.95;493143;1145;65446;-75
2021/01/06 03:42:02;;;;;;;16.90;11.60;;;;;;;-0.26;88.07;98933.73;492832;1145;65213;-71
2021/01/06 03:52:13;;;;;;;16.87;12.63;;;;;;;-0.29;87.69;98928.67;492586;1145;65111;-72
2021/01/06 04:02:21;;;;;;;17.67;11.13;;;;;;;-0.27;88.55;98938.95;493159;1146;65702;-70
2021/01/06 04:12:25;;;;;;;15.30;10.03;;;;;;;-0.27;88.88;98936.38;493519;1144;65468;-72
2021/01/06 04:22:41;;;;;;;15.30;10.70;;;;;;;-0.26;87.73;98933.73;493526;1146;65137;-71
2021/01/06 04:32:45;;;;;;;17.50;12.50;;;;;;;-0.25;88.41;98942.33;493060;1146;65184;-72
2021/01/06 04:42:49;;;;;;;17.20;11.27;;;;;;;-0.22;88.01;98953.41;493716;1145;65137;-71
2021/01/06 04:53:15;;;;;;;17.50;11.55;;;;;;;-0.22;87.83;98960.30;493789;1147;65116;-73
2021/01/06 05:03:49;;;;;;;15.70;10.20;;;;;;;-0.19;87.94;98966.22;492974;1144;65167;-70
2021/01/06 05:13:58;;;;;;;17.00;11.97;;;;;;;-0.18;87.66;98967.91;492915;1144;65228;-72
2021/01/06 05:24:06;;;;;;;23.23;11.97;;;;;;;-0.12;87.56;98978.91;493772;1145;65542;-71
2021/01/06 05:34:10;;;;;;;16.77;12.07;;;;;;;-0.13;87.60;98979.81;493167;1145;65204;-72
2021/01/06 05:44:14;;;;;;;31.23;17.03;;;;;;;-0.11;88.02;98978.88;492509;1145;65118;-71
2021/01/06 05:54:21;;;;;;;20.60;13.77;;;;;;;-0.10;87.92;98985.73;492672;1144;65111;-72
2021/01/06 06:04:34;;;;;;;;;;;;;;;-0.13;87.77;98993.58;492727;1146;65207;-72
2021/01/06 06:15:16;;;;;;;24.20;13.90;;;;;;;-0.14;87.77;98989.30;492735;1145;65204;-72
2021/01/06 06:25:25;;;;;;;19.07;11.93;;;;;;;-0.15;88.22;98996.19;493141;1145;65188;-73
2021/01/06 06:35:36;;;;;;;15.90;11.03;;;;;;;-0.13;88.26;99008.20;493101;1145;65442;-72
2021/01/06 06:46:01;;;;;;;18.10;12.73;;;;;;;-0.08;88.12;99024.41;493094;1145;65222;-70
2021/01/06 06:56:16;;;;;;;17.97;11.80;;;;;;;-0.08;87.53;99037.31;493659;1145;65120;-72
2021/01/06 07:06:20;;;;;;;13.57;10.00;;;;;;;-0.03;88.01;99041.45;493732;1145;65468;-72
2021/01/06 07:16:32;;;;;;;15.00;11.00;;;;;;;0.02;87.79;99043.91;493471;1145;65510;-71
2021/01/06 07:26:41;;;;;;;17.03;11.13;;;;;;;-0.01;87.65;99055.16;493111;1145;65123;-72
2021/01/06 07:36:49;;;;;;;15.50;10.25;;;;;;;0.03;88.57;99058.50;493391;1145;65201;-72
2021/01/06 07:47:10;;;;;;;15.80;11.05;;;;;;;0.04;88.72;99067.07;493394;1145;65136;-72
2021/01/06 07:57:26;;;;;;;17.33;12.03;;;;;;;0.06;88.27;99080.77;492984;1145;65174;-70
2021/01/06 08:07:30;;;;;;;20.17;12.30;;;;;;;0.15;88.01;99071.94;493816;1145;65191;-72
2021/01/06 08:17:44;;;;;;;13.20;9.77;;;;;;;0.27;87.96;99074.16;493694;1143;65137;-71
2021/01/06 08:27:49;;;;;;;16.00;10.85;;;;;;;0.42;87.96;99072.84;493677;1143;65204;-71
2021/01/06 08:37:53;;;;;;;16.50;11.53;;;;;;;0.58;87.31;99080.11;493442;1143;65266;-72
2021/01/06 08:47:57;;;;;;;18.90;12.93;;;;;;;0.77;87.61;99067.45;493602;1143;65136;-73
2021/01/06 08:58:04;;;;;;;18.97;12.30;;;;;;;0.91;87.57;99067.84;493981;1144;65115;-72
2021/01/06 09:08:13;;;;;;;19.57;12.00;;;;;;;0.88;87.09;99062.78;494088;1143;65582;-72
2021/01/06 09:18:22;;;;;;;18.70;13.33;;;;;;;0.78;86.47;99069.13;494170;1144;65214;-72
2021/01/06 09:28:29;;;;;;;18.57;13.27;;;;;;;0.71;86.52;99065.08;493923;1143;65115;-71
2021/01/06 09:38:35;;;;;;;13.45;8.68;;;;;;;0.73;85.83;99061.53;493533;1144;65541;-72
2021/01/06 09:48:40;;;;;;;8.73;7.20;;;;;;;0.66;86.08;99058.30;494391;1144;66342;-71
2021/01/06 09:58:46;;;;;;;17.00;12.00;;;;;;;0.59;85.64;99035.29;493882;1143;65175;-71
2021/01/06 10:08:56;;;;;;;;;;;;;;;0.64;86.27;99030.84;493793;1143;65178;-72
2021/01/06 10:19:10;;;;;;;16.90;10.10;;;;;;;0.66;85.90;99018.70;493984;1143;65205;-71
2021/01/06 10:29:19;;;;;;;14.30;9.83;;;;;;;0.65;85.42;99037.69;493978;1144;65134;-70
2021/01/06 10:39:31;;;;;;;22.87;13.20;;;;;;;0.67;85.13;99035.90;494141;1144;65582;-70
2021/01/06 10:49:51;;;;;;;10.27;7.37;;;;;;;0.70;85.11;99033.20;494130;1143;65256;-71
2021/01/06 11:00:17;;;;;;;15.97;9.80;;;;;;;0.78;84.81;99035.53;494215;1143;65131;-72
2021/01/06 11:10:48;;;;;;;12.83;8.43;;;;;;;0.78;84.08;99032.95;494305;1144;65194;-73
2021/01/06 11:21:15;;;;;;;26.30;12.73;;;;;;;0.79;84.62;99026.88;493774;1143;65099;-70
2021/01/06 11:31:30;;;;;;;16.40;9.63;;;;;;;0.83;84.73;99031.08;493718;1143;65107;-72
2021/01/06 11:42:02;;;;;;;18.70;10.70;;;;;;;0.86;84.16;99023.21;485424;1144;10001653;-71
2021/01/06 11:52:44;;;;;;;13.10;8.10;;;;;;;0.79;83.90;99003.63;493432;1143;65140;-71
2021/01/06 12:03:00;;;;;;;24.30;11.93;;;;;;;0.83;83.72;98987.96;494175;1143;65133;-72
2021/01/06 12:13:16;;;;;;;16.33;8.30;;;;;;;0.91;84.00;98990.28;494108;1143;65364;-71
2021/01/06 12:23:36;;;;;;;14.95;8.20;;;;;;;1.01;83.44;98967.56;493773;1143;65210;-73
2021/01/06 12:33:45;;;;;;;18.33;8.93;;;;;;;1.18;83.58;98958.36;493619;1144;65258;-71
2021/01/06 12:44:08;;;;;;;18.50;10.40;;;;;;;1.32;82.93;98950.11;493796;1143;65147;-71
2021/01/06 12:54:18;;;;;;;18.40;10.87;;;;;;;1.42;83.16;98955.78;494325;1144;65204;-70
2021/01/06 13:04:31;;;;;;;10.45;7.40;;;;;;;1.42;82.49;98948.02;493839;1143;65204;-71
2021/01/06 13:14:48;;;;;;;10.83;8.73;;;;;;;1.46;82.39;98945.27;494080;1143;65162;-72
2021/01/06 13:25:02;;;;;;;;;;;;;;;1.43;82.10;98934.17;494387;1143;65130;-73
2021/01/06 13:35:20;;;;;;;12.13;8.67;;;;;;;1.44;82.17;98926.37;493574;1143;65162;-72
2021/01/06 13:45:44;;;;;;;10.73;8.47;;;;;;;1.53;82.21;98925.17;493395;1144;65210;-71
2021/01/06 13:55:58;;;;;;;11.77;8.03;;;;;;;1.56;81.37;98929.40;493969;1143;65209;-68
2021/01/06 14:06:14;;;;;;;15.20;9.27;;;;;;;1.49;81.61;98934.79;493952;1143;66129;-67
2021/01/06 14:16:30;;;;;;;12.10;8.53;;;;;;;1.44;81.79;98921.20;493917;1144;65424;-71
2021/01/06 14:26:40;;;;;;;17.80;15.03;;;;;;;1.34;81.55;98925.02;494268;1143;65184;-71
2021/01/06 14:36:52;;;;;;;19.27;13.27;;;;;;;1.23;81.26;98923.67;493834;1143;65391;-70
2021/01/06 14:47:17;;;;;;;22.10;13.40;;;;;;;1.22;81.62;98923.74;494316;1143;65108;-62
2021/01/06 14:57:43;;;;;;;28.87;20.53;;;;;;;1.25;81.56;98933.97;493701;1144;65553;-67
2021/01/06 15:08:06;;;;;;;28.90;20.07;;;;;;;1.21;82.12;98924.61;494247;1143;65184;-70
2021/01/06 15:18:15;;;;;;;21.93;17.10;;;;;;;1.19;82.58;98916.07;493786;1143;65209;-70
2021/01/06 15:28:21;;;;;;;26.57;19.40;;;;;;;1.14;82.45;98915.41;494200;1143;65115;-67
2021/01/06 15:38:27;;;;;;;26.90;17.40;;;;;;;1.07;82.37;98912.20;493664;1143;65181;-69
2021/01/06 15:48:31;;;;;;;35.30;23.23;;;;;;;1.09;83.21;98897.47;493863;1143;65207;-68
2021/01/06 15:58:35;;;;;;;27.43;21.47;;;;;;;1.07;83.39;98894.10;494007;1143;65236;-66
2021/01/06 16:08:39;;;;;;;29.70;18.77;;;;;;;1.04;83.26;98904.53;493706;1143;65174;-66
2021/01/06 16:18:45;;;;;;;33.77;20.70;;;;;;;1.00;83.85;98888.31;494145;1143;65130;-66
2021/01/06 16:28:50;;;;;;;39.30;21.93;;;;;;;0.93;83.67;98889.42;493915;1143;65754;-60
2021/01/06 16:39:09;;;;;;;40.87;23.37;;;;;;;0.89;83.99;98874.93;494170;1143;65130;-70
2021/01/06 16:49:22;;;;;;;32.17;22.77;;;;;;;0.87;84.54;98880.14;494168;1143;65136;-63
2021/01/06 16:59:30;;;;;;;41.47;24.17;;;;;;;0.80;84.74;98871.77;493834;1143;65111;-65
2021/01/06 17:09:35;;;;;;;38.30;24.63;;;;;;;0.76;84.36;98864.17;493925;1143;65761;-66
2021/01/06 17:19:40;;;;;;;33.85;21.80;;;;;;;0.68;84.74;98854.94;493849;1143;65520;-62
2021/01/06 17:29:45;;;;;;;28.50;19.63;;;;;;;0.59;84.67;98837.20;493709;1143;67064;-63
2021/01/06 17:39:48;;;;;;;28.63;20.20;;;;;;;0.52;85.83;98835.72;493566;1143;65214;-62
2021/01/06 17:49:53;;;;;;;29.43;18.83;;;;;;;0.51;85.58;98826.28;493552;1143;66023;-66
2021/01/06 18:00:00;;;;;;;29.47;19.10;;;;;;;0.44;85.19;98824.80;493780;1143;65119;-68
2021/01/06 18:10:14;;;;;;;28.38;19.07;;;;;;;0.43;85.40;98816.23;493948;1144;65172;-69
2021/01/06 18:20:33;;;;;;;32.57;22.90;;;;;;;0.37;86.14;98811.26;493832;1143;65241;-65
2021/01/06 18:30:37;;;;;;;38.10;25.00;;;;;;;0.33;86.48;98817.44;493648;1143;65134;-65
2021/01/06 18:40:44;;;;;;;40.65;28.45;;;;;;;0.32;85.55;98808.00;493863;1144;65595;-64
2021/01/06 18:50:51;;;;;;;;;;;;;;;0.24;86.12;98800.53;494258;1143;65121;-63
2021/01/06 19:00:56;;;;;;;39.92;24.82;;;;;;;0.12;86.07;98802.63;493739;1144;65616;-66
2021/01/06 19:11:02;;;;;;;40.25;26.30;;;;;;;0.11;86.31;98808.66;493920;1143;65127;-61
2021/01/06 19:21:16;;;;;;;37.17;24.67;;;;;;;0.05;86.97;98798.56;493863;1143;65561;-69
2021/01/06 19:31:22;;;;;;;43.53;25.90;;;;;;;-0.01;86.29;98807.35;493959;1143;65216;-67
2021/01/06 19:41:30;;;;;;;38.63;24.13;;;;;;;0.03;86.42;98790.03;494088;1144;65127;-65
2021/01/06 19:51:34;;;;;;;33.83;22.73;;;;;;;0.06;86.53;98789.06;493503;1143;66192;-65
2021/01/06 20:01:38;;;;;;;38.97;25.67;;;;;;;0.10;86.55;98783.74;493917;1143;65566;-67
2021/01/06 20:11:44;;;;;;;38.53;23.60;;;;;;;0.12;86.24;98781.13;494197;1143;65589;-64
2021/01/06 20:21:48;;;;;;;32.83;22.43;;;;;;;0.10;86.87;98777.75;494108;1143;65133;-65
2021/01/06 20:31:53;;;;;;;37.40;23.47;;;;;;;0.08;86.59;98770.05;494487;1143;65179;-63
2021/01/06 20:41:59;;;;;;;28.07;19.07;;;;;;;0.04;87.02;98773.64;494104;1144;65207;-66
2021/01/06 20:52:03;;;;;;;30.30;19.90;;;;;;;0.02;87.34;98766.84;494186;1143;65114;-59
2021/01/06 21:02:08;;;;;;;29.17;19.33;;;;;;;0.02;86.58;98765.11;493461;1144;65193;-59
2021/01/06 21:12:12;;;;;;;29.27;20.43;;;;;;;0.05;87.54;98761.56;494050;1143;65124;-63
2021/01/06 21:22:16;;;;;;;26.77;18.83;;;;;;;0.07;86.80;98754.63;493806;1144;65691;-60
2021/01/06 21:32:20;;;;;;;27.90;19.50;;;;;;;0.23;86.44;98762.66;494070;1143;65207;-60
2021/01/06 21:42:24;;;;;;;27.93;18.87;;;;;;;0.41;86.87;98751.69;485443;1143;10001965;-60
2021/01/06 21:52:29;;;;;;;27.83;18.57;;;;;;;0.53;87.04;98752.15;493554;1144;65223;-61
2021/01/06 22:02:33;;;;;;;20.33;16.20;;;;;;;0.57;86.21;98760.64;493868;1144;65223;-62
2021/01/06 22:12:40;;;;;;;25.23;16.20;;;;;;;0.56;86.57;98757.20;493965;1144;65156;-64
2021/01/06 22:22:44;;;;;;;21.10;14.87;;;;;;;0.46;86.91;98736.03;494217;1143;65817;-62
2021/01/06 22:32:49;;;;;;;26.33;17.73;;;;;;;0.41;86.47;98749.11;493820;1143;65127;-66
2021/01/06 22:42:53;;;;;;;24.03;15.77;;;;;;;0.43;86.07;98737.88;494160;1143;65223;-66
2021/01/06 22:52:57;;;;;;;27.43;17.90;;;;;;;0.28;86.95;98735.78;493878;1143;65140;-65
2021/01/06 23:03:01;;;;;;;33.37;20.67;;;;;;;0.30;87.00;98740.91;494155;1144;65641;-69
2021/01/06 23:13:04;;;;;;;27.33;16.90;;;;;;;0.24;87.26;98735.97;493505;1143;65354;-67
2021/01/06 23:23:08;;;;;;;23.93;15.63;;;;;;;0.27;86.63;98730.69;493626;1143;65613;-68
2021/01/06 23:33:12;;;;;;;26.70;16.70;;;;;;;0.17;87.20;98727.58;493589;1143;65207;-65
2021/01/06 23:43:17;;;;;;;21.77;15.33;;;;;;;0.16;86.50;98722.48;493493;1144;65194;-63
2021/01/06 23:53:21;;;;;;;21.33;15.00;;;;;;;0.04;87.28;98727.18;493968;1143;65325;-66
